sensor_id;sensor_type;location;lat;lon;timestamp;pressure;altitude;pressure_sealevel;temperature;humidity
59154;BME280;44935;48.944;9.418;2022-11-15T00:01:34;98476.59;;;8.29;56.40
59154;BME280;44935;48.944;9.418;2022-11-15T00:04:01;98478.53;;;10.17;53.02
59154;BME280;44935;48.944;9.418;2022-11-15T00:06:28;98475.44;;;10.35;52.21
59154;BME280;44935;48.944;9.418;2022-11-15T00:08:58;98472.71;;;11.82;49.69
59154;BME280;44935;48.944;9.418;2022-11-15T00:11:25;98473.65;;;9.16;54.12
59154;BME280;44935;48.944;9.418;2022-11-15T00:13:54;98471.37;;;10.24;52.24
59154;BME280;44935;48.944;9.418;2022-11-15T00:16:23;98472.65;;;7.92;57.66
59154;BME280;44935;48.944;9.418;2022-11-15T00:18:50;98473.52;;;10.28;52.64
59154;BME280;44935;48.944;9.418;2022-11-15T00:21:18;98467.94;;;10.08;52.56
59154;BME280;44935;48.944;9.418;2022-11-15T00:23:45;98465.19;;;7.63;58.18
59154;BME280;44935;48.944;9.418;2022-11-15T00:26:14;98466.50;;;10.57;51.99
59154;BME280;44935;48.944;9.418;2022-11-15T00:28:41;98463.63;;;8.33;56.23
59154;BME280;44935;48.944;9.418;2022-11-15T00:31:12;98462.44;;;11.13;51.33
59154;BME280;44935;48.944;9.418;2022-11-15T00:33:40;98460.78;;;11.84;49.31
59154;BME280;44935;48.944;9.418;2022-11-15T00:36:09;98461.96;;;11.45;49.55
59154;BME280;44935;48.944;9.418;2022-11-15T00:38:38;98463.00;;;11.49;50.41
59154;BME280;44935;48.944;9.418;2022-11-15T00:41:07;98463.60;;;11.10;50.15
59154;BME280;44935;48.944;9.418;2022-11-15T00:43:34;98460.20;;;11.17;50.17
59154;BME280;44935;48.944;9.418;2022-11-15T00:46:01;98459.29;;;12.17;48.47
59154;BME280;44935;48.944;9.418;2022-11-15T00:48:29;98459.21;;;9.27;53.47
59154;BME280;44935;48.944;9.418;2022-11-15T00:50:57;98453.22;;;11.46;49.72
59154;BME280;44935;48.944;9.418;2022-11-15T00:53:24;98449.86;;;11.41;48.68
59154;BME280;44935;48.944;9.418;2022-11-15T00:55:51;98454.06;;;9.94;51.69
59154;BME280;44935;48.944;9.418;2022-11-15T00:58:18;98447.67;;;10.17;51.07
59154;BME280;44935;48.944;9.418;2022-11-15T01:00:51;98447.38;;;11.61;49.26
59154;BME280;44935;48.944;9.418;2022-11-15T01:03:18;98447.64;;;12.77;46.99
59154;BME280;44935;48.944;9.418;2022-11-15T01:05:45;98448.25;;;12.59;47.24
59154;BME280;44935;48.944;9.418;2022-11-15T01:08:12;98445.74;;;9.67;52.56
59154;BME280;44935;48.944;9.418;2022-11-15T01:10:41;98435.33;;;7.84;56.59
59154;BME280;44935;48.944;9.418;2022-11-15T01:13:08;98434.59;;;6.87;60.29
59154;BME280;44935;48.944;9.418;2022-11-15T01:15:39;98427.66;;;7.63;58.84
59154;BME280;44935;48.944;9.418;2022-11-15T01:18:06;98427.51;;;6.61;61.51
59154;BME280;44935;48.944;9.418;2022-11-15T01:20:33;98418.22;;;5.87;64.15
59154;BME280;44935;48.944;9.418;2022-11-15T01:23:00;98414.13;;;5.64;64.80
59154;BME280;44935;48.944;9.418;2022-11-15T01:25:27;98412.80;;;7.12;61.76
59154;BME280;44935;48.944;9.418;2022-11-15T01:27:54;98404.90;;;6.62;61.35
59154;BME280;44935;48.944;9.418;2022-11-15T01:30:21;98402.66;;;8.87;56.18
59154;BME280;44935;48.944;9.418;2022-11-15T01:32:47;98400.16;;;7.11;59.25
59154;BME280;44935;48.944;9.418;2022-11-15T01:35:14;98397.30;;;8.83;56.02
59154;BME280;44935;48.944;9.418;2022-11-15T01:37:41;98404.80;;;10.05;52.39
59154;BME280;44935;48.944;9.418;2022-11-15T01:40:09;98406.03;;;10.42;52.02
59154;BME280;44935;48.944;9.418;2022-11-15T01:42:37;98401.67;;;10.10;51.60
59154;BME280;44935;48.944;9.418;2022-11-15T01:45:05;98399.89;;;10.65;49.87
59154;BME280;44935;48.944;9.418;2022-11-15T01:47:35;98401.87;;;11.27;48.73
59154;BME280;44935;48.944;9.418;2022-11-15T01:50:06;98401.65;;;11.74;48.25
59154;BME280;44935;48.944;9.418;2022-11-15T01:52:36;98398.82;;;10.94;48.60
59154;BME280;44935;48.944;9.418;2022-11-15T01:55:07;98398.53;;;8.05;55.24
59154;BME280;44935;48.944;9.418;2022-11-15T01:57:35;98395.18;;;10.50;50.02
59154;BME280;44935;48.944;9.418;2022-11-15T02:00:05;98397.13;;;9.36;52.28
59154;BME280;44935;48.944;9.418;2022-11-15T02:02:33;98393.49;;;10.12;50.49
59154;BME280;44935;48.944;9.418;2022-11-15T02:05:01;98389.64;;;10.60;49.58
59154;BME280;44935;48.944;9.418;2022-11-15T02:07:28;98389.67;;;10.65;49.37
59154;BME280;44935;48.944;9.418;2022-11-15T02:09:59;98388.97;;;10.68;49.38
59154;BME280;44935;48.944;9.418;2022-11-15T02:12:28;98385.41;;;11.06;48.80
59154;BME280;44935;48.944;9.418;2022-11-15T02:14:56;98381.22;;;10.95;48.30
59154;BME280;44935;48.944;9.418;2022-11-15T02:17:37;98381.37;;;9.63;50.83
59154;BME280;44935;48.944;9.418;2022-11-15T02:20:28;98374.58;;;7.22;55.64
59154;BME280;44935;48.944;9.418;2022-11-15T02:23:34;98377.89;;;9.55;51.89
59154;BME280;44935;48.944;9.418;2022-11-15T02:26:41;98375.05;;;9.87;50.57
59154;BME280;44935;48.944;9.418;2022-11-15T02:29:17;98374.69;;;9.30;51.23
59154;BME280;44935;48.944;9.418;2022-11-15T02:31:57;98365.43;;;8.79;53.69
59154;BME280;44935;48.944;9.418;2022-11-15T02:34:35;98360.19;;;7.25;56.52
59154;BME280;44935;48.944;9.418;2022-11-15T02:37:11;98362.47;;;8.88;53.92
59154;BME280;44935;48.944;9.418;2022-11-15T02:39:49;98362.41;;;9.30;52.96
59154;BME280;44935;48.944;9.418;2022-11-15T02:42:21;98365.36;;;9.55;51.88
59154;BME280;44935;48.944;9.418;2022-11-15T02:44:49;98364.96;;;9.52;51.92
59154;BME280;44935;48.944;9.418;2022-11-15T02:47:17;98360.88;;;9.69;51.60
59154;BME280;44935;48.944;9.418;2022-11-15T02:49:49;98354.31;;;8.61;54.53
59154;BME280;44935;48.944;9.418;2022-11-15T02:52:19;98351.24;;;8.71;53.57
59154;BME280;44935;48.944;9.418;2022-11-15T02:54:53;98348.09;;;10.07;51.28
59154;BME280;44935;48.944;9.418;2022-11-15T02:57:33;98345.07;;;8.42;54.57
59154;BME280;44935;48.944;9.418;2022-11-15T03:00:08;98343.11;;;9.71;51.94
59154;BME280;44935;48.944;9.418;2022-11-15T03:02:48;98336.67;;;10.11;51.05
59154;BME280;44935;48.944;9.418;2022-11-15T03:05:26;98337.05;;;11.07;49.36
59154;BME280;44935;48.944;9.418;2022-11-15T03:08:02;98337.03;;;10.59;49.67
59154;BME280;44935;48.944;9.418;2022-11-15T03:10:40;98338.68;;;11.02;49.00
59154;BME280;44935;48.944;9.418;2022-11-15T03:13:16;98337.54;;;11.02;49.33
59154;BME280;44935;48.944;9.418;2022-11-15T03:15:51;98337.23;;;10.87;49.05
59154;BME280;44935;48.944;9.418;2022-11-15T03:18:25;98335.45;;;11.29;48.51
59154;BME280;44935;48.944;9.418;2022-11-15T03:20:55;98328.90;;;11.32;48.60
59154;BME280;44935;48.944;9.418;2022-11-15T03:23:26;98324.47;;;10.69;49.30
59154;BME280;44935;48.944;9.418;2022-11-15T03:25:56;98327.39;;;10.56;50.13
59154;BME280;44935;48.944;9.418;2022-11-15T03:28:29;98322.88;;;8.19;53.99
59154;BME280;44935;48.944;9.418;2022-11-15T03:31:02;98326.36;;;8.29;55.11
59154;BME280;44935;48.944;9.418;2022-11-15T03:33:30;98329.44;;;9.47;51.41
59154;BME280;44935;48.944;9.418;2022-11-15T03:35:58;98320.72;;;10.56;50.42
59154;BME280;44935;48.944;9.418;2022-11-15T03:38:26;98315.08;;;10.67;49.33
59154;BME280;44935;48.944;9.418;2022-11-15T03:40:59;98316.54;;;8.65;52.92
59154;BME280;44935;48.944;9.418;2022-11-15T03:43:33;98319.44;;;9.55;51.61
59154;BME280;44935;48.944;9.418;2022-11-15T03:46:04;98306.86;;;10.26;49.44
59154;BME280;44935;48.944;9.418;2022-11-15T03:48:36;98311.31;;;9.96;49.85
59154;BME280;44935;48.944;9.418;2022-11-15T03:51:05;98304.96;;;9.59;50.41
59154;BME280;44935;48.944;9.418;2022-11-15T03:53:32;98300.62;;;10.62;48.69
59154;BME280;44935;48.944;9.418;2022-11-15T03:55:59;98300.17;;;10.22;48.88
59154;BME280;44935;48.944;9.418;2022-11-15T03:58:26;98299.74;;;10.31;48.74
59154;BME280;44935;48.944;9.418;2022-11-15T04:00:53;98299.67;;;10.08;48.80
59154;BME280;44935;48.944;9.418;2022-11-15T04:03:20;98305.92;;;9.39;49.87
59154;BME280;44935;48.944;9.418;2022-11-15T04:05:47;98301.26;;;9.84;50.37
59154;BME280;44935;48.944;9.418;2022-11-15T04:08:13;98294.25;;;9.97;49.47
59154;BME280;44935;48.944;9.418;2022-11-15T04:10:40;98291.06;;;10.31;49.21
59154;BME280;44935;48.944;9.418;2022-11-15T04:13:07;98299.66;;;10.16;49.42
59154;BME280;44935;48.944;9.418;2022-11-15T04:15:35;98291.02;;;10.29;49.53
59154;BME280;44935;48.944;9.418;2022-11-15T04:18:03;98286.53;;;6.71;55.37
59154;BME280;44935;48.944;9.418;2022-11-15T04:20:30;98287.44;;;6.57;58.53
59154;BME280;44935;48.944;9.418;2022-11-15T04:22:59;98289.06;;;8.87;52.97
59154;BME280;44935;48.944;9.418;2022-11-15T04:25:26;98284.52;;;9.68;51.01
59154;BME280;44935;48.944;9.418;2022-11-15T04:27:53;98285.96;;;9.02;51.24
59154;BME280;44935;48.944;9.418;2022-11-15T04:30:20;98289.94;;;8.90;51.94
59154;BME280;44935;48.944;9.418;2022-11-15T04:32:47;98290.28;;;8.89;52.43
59154;BME280;44935;48.944;9.418;2022-11-15T04:35:14;98289.49;;;8.46;52.76
59154;BME280;44935;48.944;9.418;2022-11-15T04:37:41;98287.02;;;9.23;52.40
59154;BME280;44935;48.944;9.418;2022-11-15T04:40:08;98288.32;;;9.57;51.01
59154;BME280;44935;48.944;9.418;2022-11-15T04:42:35;98287.01;;;9.21;51.46
59154;BME280;44935;48.944;9.418;2022-11-15T04:45:03;98277.01;;;7.80;53.80
59154;BME280;44935;48.944;9.418;2022-11-15T04:47:30;98277.18;;;9.29;51.47
59154;BME280;44935;48.944;9.418;2022-11-15T04:49:57;98276.60;;;9.88;49.34
59154;BME280;44935;48.944;9.418;2022-11-15T04:52:24;98276.88;;;9.42;50.46
59154;BME280;44935;48.944;9.418;2022-11-15T04:54:51;98279.28;;;9.19;50.77
59154;BME280;44935;48.944;9.418;2022-11-15T04:57:18;98281.02;;;9.79;50.28
59154;BME280;44935;48.944;9.418;2022-11-15T04:59:46;98273.08;;;10.42;49.25
59154;BME280;44935;48.944;9.418;2022-11-15T05:02:14;98269.35;;;10.12;48.52
59154;BME280;44935;48.944;9.418;2022-11-15T05:04:41;98267.61;;;9.39;49.47
59154;BME280;44935;48.944;9.418;2022-11-15T05:07:08;98257.58;;;10.62;47.54
59154;BME280;44935;48.944;9.418;2022-11-15T05:09:35;98255.54;;;10.74;47.38
59154;BME280;44935;48.944;9.418;2022-11-15T05:12:02;98256.58;;;9.98;48.09
59154;BME280;44935;48.944;9.418;2022-11-15T05:14:30;98262.87;;;10.29;47.85
59154;BME280;44935;48.944;9.418;2022-11-15T05:16:57;98261.93;;;7.96;51.34
59154;BME280;44935;48.944;9.418;2022-11-15T05:19:23;98253.71;;;5.95;56.86
59154;BME280;44935;48.944;9.418;2022-11-15T05:21:50;98256.03;;;5.91;58.48
59154;BME280;44935;48.944;9.418;2022-11-15T05:24:17;98260.72;;;8.79;51.87
59154;BME280;44935;48.944;9.418;2022-11-15T05:26:45;98260.32;;;8.50;51.77
59154;BME280;44935;48.944;9.418;2022-11-15T05:29:12;98261.69;;;9.65;50.49
59154;BME280;44935;48.944;9.418;2022-11-15T05:31:40;98265.04;;;8.14;53.37
59154;BME280;44935;48.944;9.418;2022-11-15T05:34:08;98255.50;;;9.93;49.68
59154;BME280;44935;48.944;9.418;2022-11-15T05:36:37;98253.60;;;8.80;51.76
59154;BME280;44935;48.944;9.418;2022-11-15T05:39:06;98246.06;;;6.76;57.12
59154;BME280;44935;48.944;9.418;2022-11-15T05:41:37;98249.76;;;8.13;53.48
59154;BME280;44935;48.944;9.418;2022-11-15T05:44:06;98247.79;;;9.44;51.08
59154;BME280;44935;48.944;9.418;2022-11-15T05:46:36;98247.69;;;8.76;52.24
59154;BME280;44935;48.944;9.418;2022-11-15T05:49:06;98247.39;;;9.42;50.27
59154;BME280;44935;48.944;9.418;2022-11-15T05:51:34;98239.69;;;9.81;49.26
59154;BME280;44935;48.944;9.418;2022-11-15T05:54:02;98238.04;;;10.35;48.76
59154;BME280;44935;48.944;9.418;2022-11-15T05:56:30;98236.92;;;10.36;47.67
59154;BME280;44935;48.944;9.418;2022-11-15T05:58:58;98237.77;;;10.63;47.19
59154;BME280;44935;48.944;9.418;2022-11-15T06:01:25;98245.11;;;10.37;47.49
59154;BME280;44935;48.944;9.418;2022-11-15T06:03:53;98245.04;;;10.33;47.48
59154;BME280;44935;48.944;9.418;2022-11-15T06:06:21;98241.31;;;10.74;47.11
59154;BME280;44935;48.944;9.418;2022-11-15T06:08:48;98246.06;;;8.31;51.43
59154;BME280;44935;48.944;9.418;2022-11-15T06:11:15;98240.72;;;10.12;48.13
59154;BME280;44935;48.944;9.418;2022-11-15T06:13:42;98242.09;;;10.20;47.80
59154;BME280;44935;48.944;9.418;2022-11-15T06:16:09;98238.25;;;10.35;47.79
59154;BME280;44935;48.944;9.418;2022-11-15T06:18:37;98244.82;;;10.51;47.11
59154;BME280;44935;48.944;9.418;2022-11-15T06:21:05;98244.33;;;10.61;47.00
59154;BME280;44935;48.944;9.418;2022-11-15T06:23:33;98251.42;;;9.89;48.11
59154;BME280;44935;48.944;9.418;2022-11-15T06:26:01;98255.16;;;10.36;47.88
59154;BME280;44935;48.944;9.418;2022-11-15T06:28:29;98256.82;;;10.28;48.04
59154;BME280;44935;48.944;9.418;2022-11-15T06:31:02;98254.33;;;9.84;48.55
59154;BME280;44935;48.944;9.418;2022-11-15T06:33:30;98251.10;;;10.19;47.42
59154;BME280;44935;48.944;9.418;2022-11-15T06:36:00;98250.06;;;10.50;46.83
59154;BME280;44935;48.944;9.418;2022-11-15T06:38:27;98244.00;;;9.99;47.57
59154;BME280;44935;48.944;9.418;2022-11-15T06:40:54;98247.08;;;10.26;47.42
59154;BME280;44935;48.944;9.418;2022-11-15T06:43:21;98247.01;;;10.26;47.30
59154;BME280;44935;48.944;9.418;2022-11-15T06:45:48;98250.78;;;10.50;46.72
59154;BME280;44935;48.944;9.418;2022-11-15T06:48:15;98250.86;;;10.16;46.93
59154;BME280;44935;48.944;9.418;2022-11-15T06:50:42;98251.10;;;10.25;46.68
59154;BME280;44935;48.944;9.418;2022-11-15T06:53:09;98254.90;;;10.91;45.00
59154;BME280;44935;48.944;9.418;2022-11-15T07:36:40;98258.60;;;9.54;50.32
59154;BME280;44935;48.944;9.418;2022-11-15T07:39:09;98258.29;;;7.95;49.69
59154;BME280;44935;48.944;9.418;2022-11-15T07:41:40;98257.23;;;8.69;47.42
59154;BME280;44935;48.944;9.418;2022-11-15T07:44:10;98256.46;;;8.94;46.79
59154;BME280;44935;48.944;9.418;2022-11-15T07:46:39;98259.39;;;9.36;46.28
59154;BME280;44935;48.944;9.418;2022-11-15T07:49:09;98255.41;;;9.95;46.08
59154;BME280;44935;48.944;9.418;2022-11-15T07:51:37;98254.60;;;10.77;46.44
59154;BME280;44935;48.944;9.418;2022-11-15T07:54:07;98254.54;;;10.65;47.24
59154;BME280;44935;48.944;9.418;2022-11-15T07:56:37;98252.63;;;10.68;47.75
59154;BME280;44935;48.944;9.418;2022-11-15T07:59:06;98252.74;;;10.47;48.16
59154;BME280;44935;48.944;9.418;2022-11-15T08:01:37;98256.00;;;10.62;48.03
59154;BME280;44935;48.944;9.418;2022-11-15T08:04:07;98252.85;;;10.87;48.10
59154;BME280;44935;48.944;9.418;2022-11-15T08:06:37;98248.21;;;10.61;48.38
59154;BME280;44935;48.944;9.418;2022-11-15T08:09:08;98243.19;;;9.77;50.09
59154;BME280;44935;48.944;9.418;2022-11-15T08:11:37;98245.24;;;10.79;48.57
59154;BME280;44935;48.944;9.418;2022-11-15T08:14:06;98245.41;;;8.12;54.14
59154;BME280;44935;48.944;9.418;2022-11-15T08:16:36;98237.54;;;10.31;50.70
59154;BME280;44935;48.944;9.418;2022-11-15T08:19:07;98239.33;;;10.97;49.04
59154;BME280;44935;48.944;9.418;2022-11-15T08:21:37;98235.66;;;11.13;48.98
59154;BME280;44935;48.944;9.418;2022-11-15T08:24:08;98232.84;;;10.79;49.50
59154;BME280;44935;48.944;9.418;2022-11-15T08:26:39;98234.01;;;8.53;54.22
59154;BME280;44935;48.944;9.418;2022-11-15T08:29:09;98227.46;;;6.64;57.56
59154;BME280;44935;48.944;9.418;2022-11-15T08:31:38;98228.96;;;9.45;53.75
59154;BME280;44935;48.944;9.418;2022-11-15T08:34:07;98227.69;;;11.03;49.80
59154;BME280;44935;48.944;9.418;2022-11-15T08:36:37;98225.61;;;11.29;49.53
59154;BME280;44935;48.944;9.418;2022-11-15T08:39:06;98225.44;;;7.62;58.81
59154;BME280;44935;48.944;9.418;2022-11-15T08:41:36;98215.99;;;9.39;54.57
59154;BME280;44935;48.944;9.418;2022-11-15T08:44:06;98222.63;;;8.46;56.01
59154;BME280;44935;48.944;9.418;2022-11-15T08:46:36;98211.53;;;8.33;56.44
59154;BME280;44935;48.944;9.418;2022-11-15T08:49:06;98209.11;;;10.70;51.70
59154;BME280;44935;48.944;9.418;2022-11-15T08:51:34;98202.31;;;11.94;48.55
59154;BME280;44935;48.944;9.418;2022-11-15T08:54:04;98204.17;;;9.82;53.24
59154;BME280;44935;48.944;9.418;2022-11-15T08:56:34;98201.42;;;11.68;49.41
59154;BME280;44935;48.944;9.418;2022-11-15T08:59:03;98200.91;;;12.84;47.45
59154;BME280;44935;48.944;9.418;2022-11-15T09:01:33;98196.47;;;11.27;49.68
59154;BME280;44935;48.944;9.418;2022-11-15T09:04:03;98195.23;;;12.17;48.24
59154;BME280;44935;48.944;9.418;2022-11-15T09:06:32;98194.91;;;12.45;47.93
59154;BME280;44935;48.944;9.418;2022-11-15T09:09:02;98188.32;;;10.24;51.90
59154;BME280;44935;48.944;9.418;2022-11-15T09:11:30;98188.49;;;11.32;50.63
59154;BME280;44935;48.944;9.418;2022-11-15T09:13:59;98184.34;;;11.20;50.81
59154;BME280;44935;48.944;9.418;2022-11-15T09:16:28;98180.46;;;11.37;50.15
59154;BME280;44935;48.944;9.418;2022-11-15T09:19:00;98177.83;;;12.18;48.68
59154;BME280;44935;48.944;9.418;2022-11-15T09:21:29;98175.17;;;10.81;51.55
59154;BME280;44935;48.944;9.418;2022-11-15T09:23:59;98176.69;;;12.26;49.19
59154;BME280;44935;48.944;9.418;2022-11-15T09:26:29;98178.59;;;12.65;49.24
59154;BME280;44935;48.944;9.418;2022-11-15T09:28:58;98177.19;;;12.97;48.48
59154;BME280;44935;48.944;9.418;2022-11-15T09:31:27;98175.54;;;12.29;48.82
59154;BME280;44935;48.944;9.418;2022-11-15T09:33:56;98173.55;;;13.07;47.73
59154;BME280;44935;48.944;9.418;2022-11-15T09:36:26;98171.23;;;13.46;46.68
59154;BME280;44935;48.944;9.418;2022-11-15T09:38:57;98167.93;;;13.80;46.04
59154;BME280;44935;48.944;9.418;2022-11-15T09:41:50;98164.17;;;13.85;46.15
59154;BME280;44935;48.944;9.418;2022-11-15T09:44:37;98160.75;;;13.80;46.52
59154;BME280;44935;48.944;9.418;2022-11-15T09:47:36;98156.13;;;13.57;46.89
59154;BME280;44935;48.944;9.418;2022-11-15T09:50:13;98156.01;;;14.19;46.00
59154;BME280;44935;48.944;9.418;2022-11-15T09:52:49;98153.07;;;14.08;46.14
59154;BME280;44935;48.944;9.418;2022-11-15T09:55:29;98152.28;;;14.19;45.97
59154;BME280;44935;48.944;9.418;2022-11-15T09:58:09;98152.58;;;14.48;45.65
59154;BME280;44935;48.944;9.418;2022-11-15T10:00:48;98152.69;;;13.29;47.62
59154;BME280;44935;48.944;9.418;2022-11-15T10:03:19;98150.51;;;14.28;46.63
59154;BME280;44935;48.944;9.418;2022-11-15T10:05:54;98148.12;;;14.49;46.29
59154;BME280;44935;48.944;9.418;2022-11-15T10:08:47;98146.43;;;14.50;46.14
59154;BME280;44935;48.944;9.418;2022-11-15T10:11:22;98145.95;;;14.55;46.13
59154;BME280;44935;48.944;9.418;2022-11-15T10:13:55;98140.03;;;14.33;46.97
59154;BME280;44935;48.944;9.418;2022-11-15T10:16:44;98140.06;;;15.00;45.46
59154;BME280;44935;48.944;9.418;2022-11-15T10:19:25;98134.43;;;15.00;44.59
59154;BME280;44935;48.944;9.418;2022-11-15T10:22:10;98135.06;;;14.43;45.84
59154;BME280;44935;48.944;9.418;2022-11-15T10:24:44;98136.27;;;14.34;44.72
59154;BME280;44935;48.944;9.418;2022-11-15T10:27:15;98136.29;;;14.58;44.17
59154;BME280;44935;48.944;9.418;2022-11-15T10:29:46;98132.99;;;14.91;45.17
59154;BME280;44935;48.944;9.418;2022-11-15T10:32:20;98126.41;;;14.49;45.40
59154;BME280;44935;48.944;9.418;2022-11-15T10:34:50;98117.93;;;14.74;44.37
59154;BME280;44935;48.944;9.418;2022-11-15T10:37:31;98113.97;;;15.05;43.97
59154;BME280;44935;48.944;9.418;2022-11-15T10:40:05;98111.46;;;14.93;44.55
59154;BME280;44935;48.944;9.418;2022-11-15T10:42:33;98111.91;;;15.14;44.72
59154;BME280;44935;48.944;9.418;2022-11-15T10:45:08;98108.98;;;15.21;44.32
59154;BME280;44935;48.944;9.418;2022-11-15T10:47:54;98103.73;;;15.25;44.39
59154;BME280;44935;48.944;9.418;2022-11-15T10:50:44;98098.76;;;15.13;44.60
59154;BME280;44935;48.944;9.418;2022-11-15T10:53:28;98094.75;;;15.09;44.19
59154;BME280;44935;48.944;9.418;2022-11-15T10:56:02;98088.94;;;15.22;44.19
59154;BME280;44935;48.944;9.418;2022-11-15T10:58:35;98083.10;;;14.26;45.98
59154;BME280;44935;48.944;9.418;2022-11-15T11:01:16;98081.94;;;15.18;44.36
59154;BME280;44935;48.944;9.418;2022-11-15T11:03:58;98079.51;;;15.43;43.65
59154;BME280;44935;48.944;9.418;2022-11-15T11:06:30;98077.56;;;15.40;43.29
59154;BME280;44935;48.944;9.418;2022-11-15T11:09:05;98075.99;;;15.41;43.65
59154;BME280;44935;48.944;9.418;2022-11-15T11:11:46;98076.17;;;15.26;43.89
59154;BME280;44935;48.944;9.418;2022-11-15T11:14:21;98078.38;;;14.66;44.30
59154;BME280;44935;48.944;9.418;2022-11-15T11:16:54;98076.03;;;15.19;43.50
59154;BME280;44935;48.944;9.418;2022-11-15T11:19:36;98075.22;;;15.45;43.47
59154;BME280;44935;48.944;9.418;2022-11-15T11:22:17;98070.71;;;15.79;43.24
59154;BME280;44935;48.944;9.418;2022-11-15T11:25:15;98067.94;;;15.46;44.05
59154;BME280;44935;48.944;9.418;2022-11-15T11:27:59;98066.76;;;15.54;43.69
59154;BME280;44935;48.944;9.418;2022-11-15T11:30:40;98067.80;;;15.70;43.83
59154;BME280;44935;48.944;9.418;2022-11-15T11:33:18;98068.04;;;15.25;44.29
59154;BME280;44935;48.944;9.418;2022-11-15T11:35:57;98065.75;;;14.61;44.48
59154;BME280;44935;48.944;9.418;2022-11-15T11:38:41;98061.23;;;15.32;43.59
59154;BME280;44935;48.944;9.418;2022-11-15T11:41:37;98061.61;;;15.85;43.48
59154;BME280;44935;48.944;9.418;2022-11-15T11:44:18;98062.27;;;15.86;43.35
59154;BME280;44935;48.944;9.418;2022-11-15T11:48:02;98057.92;;;15.92;44.05
59154;BME280;44935;48.944;9.418;2022-11-15T11:50:37;98055.14;;;16.08;44.19
59154;BME280;44935;48.944;9.418;2022-11-15T11:53:11;98054.32;;;16.07;43.46
59154;BME280;44935;48.944;9.418;2022-11-15T11:55:44;98045.93;;;16.09;43.59
59154;BME280;44935;48.944;9.418;2022-11-15T11:58:17;98043.75;;;13.70;46.12
59154;BME280;44935;48.944;9.418;2022-11-15T12:00:57;98036.48;;;14.22;45.51
59154;BME280;44935;48.944;9.418;2022-11-15T12:03:33;98029.09;;;15.25;44.94
59154;BME280;44935;48.944;9.418;2022-11-15T12:06:15;98025.41;;;15.56;44.45
59154;BME280;44935;48.944;9.418;2022-11-15T12:08:48;98021.53;;;15.56;43.98
59154;BME280;44935;48.944;9.418;2022-11-15T12:11:23;98017.23;;;14.91;43.91
59154;BME280;44935;48.944;9.418;2022-11-15T12:14:00;98012.33;;;15.58;43.94
59154;BME280;44935;48.944;9.418;2022-11-15T12:16:31;98010.98;;;15.81;43.37
59154;BME280;44935;48.944;9.418;2022-11-15T12:19:07;98005.31;;;14.76;45.89
59154;BME280;44935;48.944;9.418;2022-11-15T12:21:44;98001.26;;;14.91;45.50
59154;BME280;44935;48.944;9.418;2022-11-15T12:24:21;98000.60;;;15.72;43.47
59154;BME280;44935;48.944;9.418;2022-11-15T12:26:56;97995.87;;;15.14;44.34
59154;BME280;44935;48.944;9.418;2022-11-15T12:29:38;97992.44;;;16.05;43.21
59154;BME280;44935;48.944;9.418;2022-11-15T12:32:22;97996.40;;;16.20;42.34
59154;BME280;44935;48.944;9.418;2022-11-15T12:34:54;97996.43;;;16.28;42.61
59154;BME280;44935;48.944;9.418;2022-11-15T12:37:59;97991.49;;;17.12;41.46
59154;BME280;44935;48.944;9.418;2022-11-15T12:45:36;97989.59;;;16.59;42.40
59154;BME280;44935;48.944;9.418;2022-11-15T12:48:55;97986.23;;;16.51;41.43
59154;BME280;44935;48.944;9.418;2022-11-15T12:52:32;97985.18;;;16.35;41.62
59154;BME280;44935;48.944;9.418;2022-11-15T13:19:10;97959.49;;;16.91;43.30
59154;BME280;44935;48.944;9.418;2022-11-15T13:21:49;97950.46;;;15.40;42.41
59154;BME280;44935;48.944;9.418;2022-11-15T13:24:18;97943.02;;;15.37;42.80
59154;BME280;44935;48.944;9.418;2022-11-15T13:26:53;97943.80;;;17.02;40.77
59154;BME280;44935;48.944;9.418;2022-11-15T13:29:23;97939.36;;;17.72;41.10
59154;BME280;44935;48.944;9.418;2022-11-15T13:31:53;97934.09;;;17.35;41.43
59154;BME280;44935;48.944;9.418;2022-11-15T13:34:29;97928.52;;;17.07;41.78
59154;BME280;44935;48.944;9.418;2022-11-15T13:36:59;97931.01;;;16.23;44.18
59154;BME280;44935;48.944;9.418;2022-11-15T13:39:30;97927.49;;;15.51;45.01
59154;BME280;44935;48.944;9.418;2022-11-15T13:42:00;97915.42;;;15.13;46.35
59154;BME280;44935;48.944;9.418;2022-11-15T13:44:32;97910.29;;;14.64;47.92
59154;BME280;44935;48.944;9.418;2022-11-15T13:47:19;97909.81;;;15.64;45.71
59154;BME280;44935;48.944;9.418;2022-11-15T13:49:48;97909.84;;;14.61;45.65
59154;BME280;44935;48.944;9.418;2022-11-15T13:52:18;97909.31;;;15.49;45.40
59154;BME280;44935;48.944;9.418;2022-11-15T13:54:55;97905.72;;;16.67;43.76
59154;BME280;44935;48.944;9.418;2022-11-15T13:57:32;97899.96;;;16.51;43.37
59154;BME280;44935;48.944;9.418;2022-11-15T14:00:38;97900.06;;;16.73;43.49
59154;BME280;44935;48.944;9.418;2022-11-15T14:15:30;97883.81;;;15.63;42.73
59154;BME280;44935;48.944;9.418;2022-11-15T14:18:05;97871.72;;;14.97;40.80
59154;BME280;44935;48.944;9.418;2022-11-15T14:20:38;97876.93;;;14.61;41.94
59154;BME280;44935;48.944;9.418;2022-11-15T14:23:26;97869.14;;;14.91;43.60
59154;BME280;44935;48.944;9.418;2022-11-15T14:25:59;97867.17;;;15.15;42.08
59154;BME280;44935;48.944;9.418;2022-11-15T14:28:37;97863.68;;;15.74;41.78
59154;BME280;44935;48.944;9.418;2022-11-15T14:31:19;97860.30;;;14.67;42.56
59154;BME280;44935;48.944;9.418;2022-11-15T14:56:47;97830.74;;;16.50;42.80
59154;BME280;44935;48.944;9.418;2022-11-15T14:59:20;97832.87;;;15.61;42.12
59154;BME280;44935;48.944;9.418;2022-11-15T15:24:03;97787.46;;;12.23;53.19
59154;BME280;44935;48.944;9.418;2022-11-15T15:26:32;97784.36;;;10.21;53.01
59154;BME280;44935;48.944;9.418;2022-11-15T15:29:00;97778.29;;;11.13;50.88
59154;BME280;44935;48.944;9.418;2022-11-15T15:31:30;97774.74;;;11.40;49.93
59154;BME280;44935;48.944;9.418;2022-11-15T15:34:39;97772.48;;;13.13;49.39
59154;BME280;44935;48.944;9.418;2022-11-15T15:37:23;97768.50;;;13.07;49.34
59154;BME280;44935;48.944;9.418;2022-11-15T15:39:52;97766.62;;;12.69;50.36